Decoded Metar for EVRA (RIGA AIRPORT in LATVIA) (IATA:N/A) | Meteo·Mobile Aviation Weather
aviador You're here:

EVRA Decoded Metar

RIGA AIRPORT in LATVIA
Report Time2019-10-22 20:50:00
UTC Time2019-10-22 21:03:49
Flight Rules mvfr MVFR
Wind220° at 07 kt
W.Decomp.*RWY 18: 5.9 kt HW 3.8 kt RCW
Visibility9999 m
Phenomena:N/A
Clouds:Overcast 024 Hf
Expected CloudBase > 1,600 ft AGL from Temp-Dew spread
Ceiling2,400 ft
Temp12°C (ISA -3)
Dew Point08°C (77% RH)
AAT9.0°C
QNH1017 hPa
Density Alt-308 ft
Elevation33 ft
Report Wrong Elevation
Raw Report
METAR EVRA 222050Z 22007KT 190V250 9999 OVC024 12/08 Q1017 R18/190095
NOSIG=

Extra information for EVRA:More info

Metar Taf Metar & Taf Last 4 Metars F.Rules Stats Wind Profile Meteogram Temp Stats Airport Information Weather charts Add Link Nearby VenuesMetar ALERT Operation Metar Decoded Social comments